createdAt,value
2023-01-13T00:00:21.656Z,94962.44
2023-01-13T00:02:48.761Z,94973.31
2023-01-13T00:05:15.957Z,94961.34
2023-01-13T00:07:43.555Z,94968.59
2023-01-13T00:10:11.979Z,94973.78
2023-01-13T00:12:40.844Z,94972.97
2023-01-13T00:15:09.240Z,94975.78
2023-01-13T00:17:36.390Z,94976.41
2023-01-13T00:20:04.024Z,94972.91
2023-01-13T00:22:34.134Z,94975.38
2023-01-13T00:25:01.784Z,94973.78
2023-01-13T00:27:29.479Z,94968.84
2023-01-13T00:29:56.536Z,94964.97
2023-01-13T00:32:23.601Z,94961.88
2023-01-13T00:34:50.603Z,94962.97
2023-01-13T00:37:17.707Z,94969.31
2023-01-13T00:39:45.890Z,94966.59
2023-01-13T00:42:31.807Z,94969.38
2023-01-13T00:44:58.822Z,94970.56
2023-01-13T00:47:25.894Z,94969.44
2023-01-13T00:49:52.882Z,94972.72
2023-01-13T00:52:19.939Z,94963.06
2023-01-13T00:54:47.216Z,94962.03
2023-01-13T00:57:15.741Z,94953.72
2023-01-13T00:59:43.266Z,94971.38
2023-01-13T01:02:11.328Z,94960.94
2023-01-13T01:04:38.643Z,94957.66
2023-01-13T01:07:05.732Z,94960.44
2023-01-13T01:09:34.800Z,94948.59
2023-01-13T01:12:02.175Z,94951.81
2023-01-13T01:14:29.400Z,94955.06
2023-01-13T01:16:56.480Z,94956.34
2023-01-13T01:19:23.822Z,94954.00
2023-01-13T01:21:50.896Z,94949.41
2023-01-13T01:24:18.003Z,94950.22
2023-01-13T01:26:45.047Z,94946.69
2023-01-13T01:29:16.059Z,94952.28
2023-01-13T01:31:43.424Z,94944.41
2023-01-13T01:34:10.972Z,94944.63
2023-01-13T01:36:39.192Z,94939.25
2023-01-13T01:39:07.066Z,94939.44
2023-01-13T01:41:35.586Z,94939.06
2023-01-13T01:44:08.915Z,94932.13
2023-01-13T01:46:44.752Z,94936.19
2023-01-13T01:49:26.621Z,94932.59
2023-01-13T01:52:02.623Z,94933.22
2023-01-13T01:55:02.180Z,94935.84
2023-01-13T01:57:52.001Z,94941.25
2023-01-13T02:00:19.448Z,94934.94
2023-01-13T02:02:49.429Z,94924.41
2023-01-13T02:05:16.536Z,94938.56
2023-01-13T02:07:46.230Z,94927.81
2023-01-13T02:10:17.895Z,94929.72
2023-01-13T02:12:45.843Z,94930.00
2023-01-13T02:15:19.868Z,94924.41
2023-01-13T02:18:49.961Z,94925.25
2023-01-13T02:21:54.024Z,94930.72
2023-01-13T02:25:00.025Z,94929.22
2023-01-13T02:27:57.819Z,94926.00
2023-01-13T02:31:14.803Z,94921.06
2023-01-13T02:34:16.466Z,94925.00
2023-01-13T02:37:07.584Z,94925.41
2023-01-13T02:39:53.349Z,94924.28
2023-01-13T02:42:49.867Z,94923.19
2023-01-13T02:45:22.590Z,94928.63
2023-01-13T02:47:56.105Z,94933.13
2023-01-13T02:50:28.937Z,94922.88
2023-01-13T02:53:22.223Z,94922.84
2023-01-13T02:55:53.759Z,94927.00
2023-01-13T02:58:24.414Z,94920.09
2023-01-13T03:00:51.794Z,94922.28
2023-01-13T03:03:19.106Z,94930.22
2023-01-13T03:05:48.438Z,94928.41
2023-01-13T03:08:52.282Z,94926.84
2023-01-13T03:11:20.570Z,94921.66
2023-01-13T03:14:21.339Z,94922.78
2023-01-13T03:17:27.129Z,94917.66
2023-01-13T03:20:18.840Z,94926.00
2023-01-13T03:23:08.285Z,94930.22
2023-01-13T03:25:41.460Z,94921.19
2023-01-13T03:28:23.218Z,94924.41
2023-01-13T03:30:59.537Z,94928.53
2023-01-13T03:33:34.679Z,94928.88
2023-01-13T03:36:10.031Z,94925.50
2023-01-13T03:38:43.182Z,94929.16
2023-01-13T03:41:30.026Z,94930.72
2023-01-13T03:44:23.480Z,94936.44
2023-01-13T03:47:38.730Z,94926.09
2023-01-13T03:50:24.706Z,94932.59
2023-01-13T03:53:14.556Z,94931.06
2023-01-13T03:55:48.106Z,94930.47
2023-01-13T03:58:21.327Z,94938.03
2023-01-13T04:00:55.812Z,94935.44
2023-01-13T04:04:07.960Z,94939.84
2023-01-13T04:06:51.077Z,94939.09
2023-01-13T04:09:54.819Z,94936.66
2023-01-13T04:12:50.555Z,94930.78
2023-01-13T04:15:24.108Z,94936.22
2023-01-13T04:17:52.205Z,94947.97
2023-01-13T04:20:19.503Z,94940.78
2023-01-13T04:22:46.710Z,94944.72
2023-01-13T04:25:13.841Z,94945.19
2023-01-13T04:27:40.954Z,94954.94
2023-01-13T04:30:09.086Z,94948.91
2023-01-13T04:32:36.221Z,94946.00
2023-01-13T04:35:03.825Z,94948.50
2023-01-13T04:37:30.938Z,94950.91
2023-01-13T04:39:58.791Z,94956.53
2023-01-13T04:42:25.810Z,94952.13
2023-01-13T04:44:52.838Z,94957.09
2023-01-13T04:47:19.841Z,94957.34
2023-01-13T04:49:46.826Z,94952.44
2023-01-13T04:52:13.880Z,94950.56
2023-01-13T04:54:40.867Z,94953.13
2023-01-13T04:57:07.866Z,94959.16
2023-01-13T04:59:35.060Z,94959.16
2023-01-13T05:02:02.120Z,94956.78
2023-01-13T05:04:29.169Z,94956.50
2023-01-13T05:06:56.278Z,94954.78
2023-01-13T05:09:23.333Z,94960.66
2023-01-13T05:12:08.828Z,94963.78
2023-01-13T05:14:54.140Z,94966.84
2023-01-13T05:17:24.559Z,94965.31
2023-01-13T05:19:52.028Z,94973.44
2023-01-13T05:22:37.938Z,94968.59
2023-01-13T05:25:25.409Z,94969.47
2023-01-13T05:28:00.246Z,94969.22
2023-01-13T05:30:33.000Z,94972.31
2023-01-13T05:33:00.103Z,94975.31
2023-01-13T05:35:27.248Z,94967.47
2023-01-13T05:37:55.036Z,94965.88
2023-01-13T05:40:41.070Z,94966.75
2023-01-13T05:43:25.644Z,94966.75
2023-01-13T05:46:04.559Z,94965.75
2023-01-13T05:48:33.959Z,94972.19
2023-01-13T05:51:02.423Z,94972.94
2023-01-13T05:53:30.081Z,94974.25
2023-01-13T05:55:57.128Z,94973.47
2023-01-13T05:58:26.781Z,94979.44
2023-01-13T06:00:59.188Z,94971.50
2023-01-13T06:03:26.291Z,94977.59
2023-01-13T06:05:58.875Z,94989.03
2023-01-13T06:08:26.439Z,94984.75
2023-01-13T06:10:53.606Z,94990.34
2023-01-13T06:13:21.089Z,94993.72
2023-01-13T06:15:48.329Z,94990.06
2023-01-13T06:18:15.651Z,95002.34
2023-01-13T06:20:42.853Z,95006.34
2023-01-13T06:23:11.913Z,94996.69
2023-01-13T06:25:54.934Z,95007.31
2023-01-13T06:28:22.127Z,95004.75
2023-01-13T06:30:53.214Z,95003.06
2023-01-13T06:33:25.830Z,95008.88
2023-01-13T06:35:57.260Z,95011.72
2023-01-13T06:38:27.682Z,95010.16
2023-01-13T06:40:55.357Z,95002.19
2023-01-13T06:43:22.881Z,94997.50
2023-01-13T06:45:52.460Z,95005.47
2023-01-13T06:48:40.471Z,94997.31
2023-01-13T06:51:07.629Z,94997.38
2023-01-13T06:53:34.658Z,95001.94
2023-01-13T06:56:01.992Z,94995.38
2023-01-13T06:58:28.935Z,94999.66
2023-01-13T07:01:00.477Z,94991.31
2023-01-13T07:03:27.619Z,95002.25
2023-01-13T07:05:57.312Z,95001.53
2023-01-13T07:08:25.047Z,95003.75
2023-01-13T07:10:53.181Z,95000.84
2023-01-13T07:13:39.200Z,94989.59
2023-01-13T07:16:08.505Z,94993.00
2023-01-13T07:18:36.461Z,95000.28
2023-01-13T07:21:10.848Z,94995.50
2023-01-13T07:23:41.761Z,94984.56
2023-01-13T07:26:10.061Z,94993.69
2023-01-13T07:28:38.400Z,94993.63
2023-01-13T07:31:07.024Z,94992.09
2023-01-13T07:33:34.140Z,94984.94
2023-01-13T07:36:03.923Z,94984.13
2023-01-13T07:38:32.071Z,94990.47
2023-01-13T07:41:19.621Z,94990.88
2023-01-13T07:43:46.897Z,94986.78
2023-01-13T07:46:14.616Z,94992.00
2023-01-13T07:48:42.156Z,94992.13
2023-01-13T07:51:11.632Z,94997.09
2023-01-13T07:53:39.599Z,94999.81
2023-01-13T07:56:08.421Z,95000.09
2023-01-13T07:58:36.890Z,94996.94
2023-01-13T08:01:12.944Z,95003.03
2023-01-13T08:03:40.977Z,94997.81
2023-01-13T08:06:09.244Z,95002.69
2023-01-13T08:08:36.474Z,95007.03
2023-01-13T08:11:04.846Z,95010.41
2023-01-13T08:13:32.645Z,94997.91
2023-01-13T08:16:05.243Z,95001.28
2023-01-13T08:18:33.148Z,95001.19
2023-01-13T08:21:26.793Z,95001.69
2023-01-13T08:23:53.910Z,95004.94
2023-01-13T08:26:20.962Z,94999.16
2023-01-13T08:28:48.404Z,95008.22
2023-01-13T08:31:16.903Z,95007.16
2023-01-13T08:33:44.675Z,95001.03
2023-01-13T08:36:12.926Z,95009.38
2023-01-13T08:38:41.062Z,95005.91
2023-01-13T08:41:36.655Z,95004.59
2023-01-13T08:44:03.921Z,95011.56
2023-01-13T08:46:31.013Z,95007.81
2023-01-13T08:48:58.409Z,95004.59
2023-01-13T08:51:25.806Z,95015.28
2023-01-13T08:53:53.099Z,95006.25
2023-01-13T08:56:20.112Z,95002.31
2023-01-13T08:58:47.216Z,95007.88
2023-01-13T09:01:23.575Z,95000.41
2023-01-13T09:03:50.892Z,95000.50
2023-01-13T09:06:18.079Z,95001.88
2023-01-13T09:08:45.299Z,95009.38
2023-01-13T09:11:48.174Z,95009.13
2023-01-13T09:14:22.231Z,95005.91
2023-01-13T09:16:49.492Z,95007.53
2023-01-13T09:19:17.044Z,95005.91
2023-01-13T09:21:44.161Z,95006.97
2023-01-13T09:24:11.180Z,95004.88
2023-01-13T09:26:38.342Z,94995.75
2023-01-13T09:29:05.947Z,94996.56
2023-01-13T09:31:36.001Z,94996.03
2023-01-13T09:34:23.285Z,94996.56
2023-01-13T09:36:50.601Z,94996.31
2023-01-13T09:39:18.600Z,94993.09
2023-01-13T09:42:08.191Z,94992.53
2023-01-13T09:45:13.527Z,94991.47
2023-01-13T09:47:58.388Z,94992.81
2023-01-13T09:51:09.984Z,94990.13
2023-01-13T09:53:51.627Z,94984.50
2023-01-13T09:56:18.619Z,94989.84
2023-01-13T09:58:47.496Z,94982.63
2023-01-13T10:01:39.961Z,94985.03
2023-01-13T10:04:16.527Z,94977.16
2023-01-13T10:06:50.575Z,94969.13
2023-01-13T10:09:34.203Z,94976.44
2023-01-13T10:12:21.288Z,94976.47
2023-01-13T10:14:55.509Z,94967.88
2023-01-13T10:17:58.593Z,94974.28
2023-01-13T10:20:43.672Z,94960.09
2023-01-13T10:23:44.662Z,94959.81
2023-01-13T10:26:45.249Z,94959.47
2023-01-13T10:29:22.079Z,94963.69
2023-01-13T10:31:49.496Z,94955.94
2023-01-13T10:34:17.829Z,94954.06
2023-01-13T10:37:09.160Z,94947.38
2023-01-13T10:39:41.833Z,94949.22
2023-01-13T10:42:18.515Z,94947.13
2023-01-13T10:44:50.751Z,94945.25
2023-01-13T10:47:29.256Z,94944.13
2023-01-13T10:50:24.631Z,94946.28
2023-01-13T10:53:03.235Z,94938.69
2023-01-13T10:55:37.325Z,94935.69
2023-01-13T10:58:18.917Z,94936.72
2023-01-13T11:00:46.757Z,94938.59
2023-01-13T11:03:22.591Z,94930.78
2023-01-13T11:05:55.603Z,94933.44
2023-01-13T11:08:26.758Z,94936.81
2023-01-13T11:10:59.211Z,94932.91
2023-01-13T11:14:01.877Z,94937.72
2023-01-13T11:16:29.188Z,94931.84
2023-01-13T11:19:02.813Z,94931.91
2023-01-13T11:21:36.712Z,94926.84
2023-01-13T11:24:55.957Z,94929.25
2023-01-13T11:28:04.647Z,94927.94
2023-01-13T11:30:44.772Z,94926.56
2023-01-13T11:33:50.213Z,94923.97
2023-01-13T11:36:31.748Z,94925.66
2023-01-13T11:39:20.989Z,94924.84
2023-01-13T11:42:16.264Z,94918.13
2023-01-13T11:45:13.106Z,94919.78
2023-01-13T11:47:40.399Z,94918.22
2023-01-13T11:50:17.816Z,94922.22
2023-01-13T11:53:23.613Z,94916.00
2023-01-13T11:56:27.803Z,94915.47
2023-01-13T12:00:00.780Z,94911.19
2023-01-13T12:03:07.045Z,94909.03
2023-01-13T12:05:45.941Z,94904.47
2023-01-13T12:08:22.006Z,94902.88
2023-01-13T12:11:23.953Z,94907.38
2023-01-13T12:14:51.265Z,94902.25
2023-01-13T12:17:44.082Z,94902.00
2023-01-13T12:20:42.174Z,94899.38
2023-01-13T12:23:27.463Z,94896.16
2023-01-13T12:26:01.549Z,94897.69
2023-01-13T12:31:43.549Z,94900.31
2023-01-13T12:34:49.237Z,94897.66
2023-01-13T12:37:35.796Z,94896.03
2023-01-13T12:43:38.372Z,94905.59
2023-01-13T12:46:59.740Z,94903.53
2023-01-13T12:49:35.981Z,94899.44
2023-01-13T12:55:05.759Z,94895.31
2023-01-13T12:57:35.586Z,94895.41
2023-01-13T13:00:15.315Z,94897.84
2023-01-13T13:03:04.520Z,94897.81
2023-01-13T13:05:42.488Z,94901.56
2023-01-13T13:15:03.090Z,94915.00
2023-01-13T13:17:40.133Z,94904.47
2023-01-13T13:20:45.818Z,94904.53
2023-01-13T13:23:39.585Z,94907.16
2023-01-13T13:26:39.511Z,94908.81
2023-01-13T13:29:22.225Z,94910.97
2023-01-13T13:32:16.797Z,94906.97
2023-01-13T13:34:59.435Z,94909.38
2023-01-13T13:38:22.437Z,94913.13
2023-01-13T13:41:08.558Z,94919.34
2023-01-13T13:44:02.724Z,94916.94
2023-01-13T13:46:47.382Z,94925.50
2023-01-13T13:49:20.052Z,94919.84
2023-01-13T13:52:33.956Z,94920.63
2023-01-13T13:55:14.223Z,94923.06
2023-01-13T13:57:46.506Z,94917.19
2023-01-13T14:00:26.796Z,94918.97
2023-01-13T14:02:57.437Z,94912.28
2023-01-13T14:05:30.523Z,94913.38
2023-01-13T14:08:07.923Z,94921.91
2023-01-13T14:10:37.728Z,94918.78
2023-01-13T14:13:27.949Z,94916.19
2023-01-13T14:16:07.359Z,94911.66
2023-01-13T14:18:45.226Z,94924.81
2023-01-13T14:21:31.230Z,94924.88
2023-01-13T14:24:02.332Z,94923.81
2023-01-13T14:26:31.616Z,94929.94
2023-01-13T14:29:01.830Z,94929.44
2023-01-13T14:31:29.732Z,94933.16
2023-01-13T14:34:00.047Z,94940.66
2023-01-13T14:36:37.909Z,94931.56
2023-01-13T14:39:25.855Z,94936.91
2023-01-13T14:41:53.756Z,94940.38
2023-01-13T14:44:27.877Z,94930.25
2023-01-13T14:46:57.842Z,94936.63
2023-01-13T14:49:40.557Z,94940.91
2023-01-13T14:52:15.239Z,94944.41
2023-01-13T14:55:11.068Z,94939.84
2023-01-13T14:57:39.815Z,94950.03
2023-01-13T15:00:24.872Z,94943.91
2023-01-13T15:03:07.823Z,94951.91
2023-01-13T15:05:37.914Z,94951.91
2023-01-13T15:08:33.970Z,94950.56
2023-01-13T15:11:07.344Z,94952.44
2023-01-13T15:13:57.788Z,94949.22
2023-01-13T15:16:26.786Z,94948.19
2023-01-13T15:18:55.463Z,94938.81
2023-01-13T15:21:25.863Z,94947.09
2023-01-13T15:23:52.978Z,94947.63
2023-01-13T15:26:30.178Z,94947.59
2023-01-13T15:28:58.932Z,94947.63
2023-01-13T15:31:26.929Z,94948.72
2023-01-13T15:33:54.706Z,94950.56
2023-01-13T15:36:32.798Z,94945.50
2023-01-13T15:39:01.121Z,94951.38
2023-01-13T15:41:46.549Z,94957.81
2023-01-13T15:44:33.590Z,94957.56
2023-01-13T15:47:05.408Z,94957.00
2023-01-13T15:49:44.267Z,94954.59
2023-01-13T15:52:37.402Z,94954.84
2023-01-13T15:55:04.765Z,94956.72
2023-01-13T15:57:34.323Z,94960.47
2023-01-13T16:00:05.722Z,94961.00
2023-01-13T16:02:33.819Z,94963.41
2023-01-13T16:05:01.024Z,94959.41
2023-01-13T16:07:28.870Z,94953.53
2023-01-13T16:09:56.199Z,94950.59
2023-01-13T16:12:23.261Z,94953.00
2023-01-13T16:14:50.437Z,94960.72
2023-01-13T16:17:20.301Z,94954.59
2023-01-13T16:19:48.085Z,94960.47
2023-01-13T16:22:16.349Z,94962.59
2023-01-13T16:24:43.698Z,94963.94
2023-01-13T16:27:16.624Z,94962.06
2023-01-13T16:29:44.595Z,94958.88
2023-01-13T16:32:12.120Z,94956.19
2023-01-13T16:34:39.952Z,94960.19
2023-01-13T16:37:19.272Z,94955.13
2023-01-13T16:39:46.620Z,94959.41
2023-01-13T16:42:13.801Z,94953.28
2023-01-13T16:44:41.109Z,94959.94
2023-01-13T16:47:15.189Z,94958.88
2023-01-13T16:49:42.410Z,94955.66
2023-01-13T16:52:09.832Z,94951.13
2023-01-13T16:54:37.090Z,94964.22
2023-01-13T16:57:04.373Z,94959.41
2023-01-13T16:59:47.565Z,94965.28
2023-01-13T17:02:20.904Z,94977.03
2023-01-13T17:04:48.422Z,94970.63
2023-01-13T17:07:17.187Z,94971.16
2023-01-13T17:09:44.275Z,94969.81
2023-01-13T17:12:11.949Z,94968.50
2023-01-13T17:14:39.047Z,94968.25
2023-01-13T17:17:06.162Z,94966.38
2023-01-13T17:19:33.375Z,94957.81
2023-01-13T17:22:00.392Z,94964.75
2023-01-13T17:24:29.847Z,94957.81
2023-01-13T17:26:57.767Z,94959.94
2023-01-13T17:29:26.848Z,94961.00
2023-01-13T17:31:54.252Z,94967.41
2023-01-13T17:34:28.083Z,94969.56
2023-01-13T17:36:57.239Z,94969.56
2023-01-13T17:39:36.287Z,94967.97
2023-01-13T17:42:05.070Z,94966.34
2023-01-13T17:44:35.535Z,94967.97
2023-01-13T17:47:02.976Z,94966.34
2023-01-13T17:49:30.213Z,94971.16
2023-01-13T17:52:00.004Z,94973.84
2023-01-13T17:54:27.474Z,94971.16
2023-01-13T17:56:57.048Z,94961.56
2023-01-13T17:59:24.633Z,94961.81
2023-01-13T18:01:52.860Z,94963.41
2023-01-13T18:04:22.723Z,94962.09
2023-01-13T18:06:50.185Z,94965.03
2023-01-13T18:09:18.378Z,94961.00
2023-01-13T18:11:47.241Z,94959.69
2023-01-13T18:14:14.899Z,94957.81
2023-01-13T18:16:42.114Z,94966.34
2023-01-13T18:19:29.009Z,94963.69
2023-01-13T18:22:14.638Z,94955.94
2023-01-13T18:25:00.773Z,94960.44
2023-01-13T18:27:36.018Z,94963.41
2023-01-13T18:30:04.865Z,94964.47
2023-01-13T18:32:33.889Z,94964.47
2023-01-13T18:35:06.804Z,94969.28
2023-01-13T18:37:42.478Z,94965.25
2023-01-13T18:40:12.854Z,94966.59
2023-01-13T18:42:52.061Z,94967.13
2023-01-13T18:45:25.604Z,94959.13
2023-01-13T18:47:54.653Z,94965.81
2023-01-13T18:50:22.562Z,94960.47
2023-01-13T18:52:49.924Z,94958.59
2023-01-13T18:55:17.053Z,94961.78
2023-01-13T18:57:44.203Z,94958.84
2023-01-13T19:00:16.302Z,94959.38
2023-01-13T19:02:43.970Z,94955.91
2023-01-13T19:05:11.381Z,94965.53
2023-01-13T19:07:38.680Z,94963.66
2023-01-13T19:10:08.495Z,94961.78
2023-01-13T19:12:35.816Z,94963.13
2023-01-13T19:15:03.254Z,94959.13
2023-01-13T19:17:33.809Z,94961.25
2023-01-13T19:20:01.484Z,94952.16
2023-01-13T19:22:34.104Z,94955.66
2023-01-13T19:25:02.160Z,94952.16
2023-01-13T19:27:30.035Z,94951.38
2023-01-13T19:30:03.361Z,94956.72
2023-01-13T19:32:33.014Z,94955.09
2023-01-13T19:35:00.144Z,94945.50
2023-01-13T19:37:30.543Z,94952.97
2023-01-13T19:39:59.431Z,94951.63
2023-01-13T19:42:45.328Z,94951.63
2023-01-13T19:45:34.136Z,94955.66
2023-01-13T19:48:05.971Z,94953.50
2023-01-13T19:50:37.833Z,94953.25
2023-01-13T19:53:05.892Z,94954.53
2023-01-13T19:55:33.391Z,94953.47
2023-01-13T19:58:00.614Z,94949.22
2023-01-13T20:00:27.872Z,94946.00
2023-01-13T20:02:57.939Z,94945.47
2023-01-13T20:05:26.719Z,94947.88
2023-01-13T20:07:54.479Z,94943.28
2023-01-13T20:10:23.068Z,94943.78
2023-01-13T20:12:50.446Z,94939.50
2023-01-13T20:15:19.459Z,94943.78
2023-01-13T20:17:47.092Z,94937.63
2023-01-13T20:20:16.451Z,94940.56
2023-01-13T20:22:44.215Z,94944.00
2023-01-13T20:25:11.827Z,94938.13
2023-01-13T20:27:39.872Z,94930.88
2023-01-13T20:30:09.914Z,94933.25
2023-01-13T20:32:37.975Z,94933.53
2023-01-13T20:35:07.521Z,94935.66
2023-01-13T20:37:36.854Z,94931.38
2023-01-13T20:40:05.839Z,94928.16
2023-01-13T20:42:40.087Z,94928.69
2023-01-13T20:45:08.274Z,94929.44
2023-01-13T20:47:35.534Z,94931.31
2023-01-13T20:50:02.829Z,94935.00
2023-01-13T20:52:30.298Z,94936.06
2023-01-13T20:54:57.983Z,94939.47
2023-01-13T20:57:25.276Z,94938.13
2023-01-13T20:59:52.381Z,94933.31
2023-01-13T21:02:20.496Z,94940.75
2023-01-13T21:04:47.765Z,94938.84
2023-01-13T21:07:15.361Z,94939.88
2023-01-13T21:09:42.728Z,94941.19
2023-01-13T21:12:32.233Z,94940.41
2023-01-13T21:15:17.516Z,94942.53
2023-01-13T21:18:04.221Z,94943.31
2023-01-13T21:20:33.995Z,94945.38
2023-01-13T21:23:02.244Z,94946.94
2023-01-13T21:25:30.132Z,94953.34
2023-01-13T21:28:08.436Z,94953.84
2023-01-13T21:30:36.061Z,94951.63
2023-01-13T21:33:04.389Z,94952.41
2023-01-13T21:35:31.597Z,94953.41
2023-01-13T21:37:58.713Z,94956.50
2023-01-13T21:40:25.802Z,94949.78
2023-01-13T21:43:11.463Z,94944.97
2023-01-13T21:45:57.981Z,94951.63
2023-01-13T21:48:25.084Z,94952.91
2023-01-13T21:50:52.146Z,94949.19
2023-01-13T21:53:19.418Z,94945.97
2023-01-13T21:55:51.105Z,94940.63
2023-01-13T21:58:18.285Z,94935.31
2023-01-13T22:00:46.235Z,94941.44
2023-01-13T22:03:16.359Z,94940.38
2023-01-13T22:05:43.396Z,94936.13
2023-01-13T22:08:13.956Z,94936.63
2023-01-13T22:11:00.366Z,94927.28
2023-01-13T22:13:47.761Z,94933.94
2023-01-13T22:16:15.489Z,94927.28
2023-01-13T22:18:42.610Z,94930.50
2023-01-13T22:21:09.960Z,94932.66
2023-01-13T22:23:36.932Z,94931.13
2023-01-13T22:26:06.493Z,94929.81
2023-01-13T22:28:43.836Z,94920.75
2023-01-13T22:31:12.660Z,94918.91
2023-01-13T22:33:45.432Z,94919.94
2023-01-13T22:36:12.595Z,94927.41
2023-01-13T22:38:40.048Z,94925.00
2023-01-13T22:41:09.225Z,94925.53
2023-01-13T22:43:37.611Z,94921.75
2023-01-13T22:46:10.470Z,94924.66
2023-01-13T22:48:38.280Z,94930.78
2023-01-13T22:51:12.280Z,94929.19
2023-01-13T22:53:39.774Z,94928.63
2023-01-13T22:56:07.656Z,94924.59
2023-01-13T22:58:34.612Z,94929.81
2023-01-13T23:01:13.273Z,94926.84
2023-01-13T23:03:40.619Z,94922.28
2023-01-13T23:06:08.152Z,94919.06
2023-01-13T23:08:35.773Z,94922.78
2023-01-13T23:11:05.159Z,94930.22
2023-01-13T23:13:32.558Z,94925.41
2023-01-13T23:16:07.876Z,94922.16
2023-01-13T23:18:34.956Z,94922.16
2023-01-13T23:21:07.306Z,94922.97
2023-01-13T23:23:34.955Z,94929.13
2023-01-13T23:26:03.028Z,94929.13
2023-01-13T23:28:30.708Z,94921.16
2023-01-13T23:30:57.843Z,94920.56
2023-01-13T23:33:25.287Z,94909.66
2023-01-13T23:36:00.157Z,94915.56
2023-01-13T23:38:28.444Z,94915.81
2023-01-13T23:40:55.767Z,94913.63
2023-01-13T23:43:23.398Z,94917.34
2023-01-13T23:45:50.529Z,94911.22
2023-01-13T23:48:18.946Z,94908.88
2023-01-13T23:50:56.982Z,94911.59
2023-01-13T23:53:24.324Z,94913.78
2023-01-13T23:55:57.247Z,94907.84
2023-01-13T23:58:24.343Z,94899.78
